Time;durP1;ratioP1;P1;durP2;ratioP2;P2;SDS_P1;SDS_P2;PMS_P1;PMS_P2;Temp;Humidity;BMP_temperature;BMP_pressure;BME280_temperature;BME280_humidity;BME280_pressure;Samples;Min_cycle;Max_cycle;Signal;HPM_P1;HPM_P2
2022/03/05 00:00:49;;;;;;;19.60;9.77;;;0.00;69.50;;;-1.35;57.99;97523.59;5012260;28;20983;-75
2022/03/05 00:03:16;;;;;;;19.05;9.45;;;0.00;69.30;;;-1.39;57.81;97519.72;5012651;28;20400;-75
2022/03/05 00:05:42;;;;;;;20.77;10.18;;;0.00;69.30;;;-1.44;58.51;97517.66;5012521;28;20436;-74
2022/03/05 00:08:09;;;;;;;20.53;10.60;;;-0.10;69.20;;;-1.46;58.04;97518.81;5012554;28;20397;-74
2022/03/05 00:10:36;;;;;;;18.40;9.68;;;-0.10;69.10;;;-1.52;58.27;97516.91;5011298;28;20423;-74
2022/03/05 00:13:02;;;;;;;19.77;10.00;;;-0.10;69.20;;;-1.46;57.82;97517.03;5011470;28;20447;-74
2022/03/05 00:15:28;;;;;;;18.48;9.88;;;-0.10;69.10;;;-1.48;58.26;97521.56;5012100;28;20411;-74
2022/03/05 00:17:56;;;;;;;13.25;8.35;;;-0.20;69.40;;;-1.70;58.09;97517.97;4996667;28;20788;-74
2022/03/05 00:20:24;;;;;;;17.38;9.45;;;-0.20;69.30;;;-1.59;58.30;97520.19;5011507;28;20445;-74
2022/03/05 00:22:54;;;;;;;15.85;9.60;;;-0.20;70.00;;;-1.63;58.60;97516.31;5011955;28;20413;-76
2022/03/05 00:25:20;;;;;;;18.58;9.57;;;-0.30;70.00;;;-1.75;59.01;97516.88;5012101;28;20396;-74
2022/03/05 00:27:47;;;;;;;17.35;9.75;;;-0.30;70.00;;;-1.76;59.24;97520.44;5012000;28;20424;-74
2022/03/05 00:30:13;;;;;;;14.05;8.35;;;-0.30;70.40;;;-1.89;59.32;97518.41;5011687;28;20404;-74
2022/03/05 00:32:40;;;;;;;16.93;9.00;;;-0.40;70.10;;;-1.89;59.64;97523.59;5011910;28;20570;-75
2022/03/05 00:35:07;;;;;;;15.77;8.82;;;-0.40;71.10;;;-1.85;59.76;97524.03;5011720;28;20405;-74
2022/03/05 00:37:35;;;;;;;20.75;9.30;;;-0.50;70.80;;;-1.91;59.75;97520.34;5011986;28;20424;-73
2022/03/05 00:40:01;;;;;;;21.83;10.32;;;-0.50;70.90;;;-1.87;59.51;97524.22;5011968;28;20488;-74
2022/03/05 00:42:27;;;;;;;18.47;9.37;;;-0.50;71.20;;;-1.95;59.94;97519.88;5010904;28;20412;-74
2022/03/05 00:44:52;;;;;;;19.48;9.85;;;-0.50;71.00;;;-1.94;59.76;97520.69;5011869;28;20411;-74
2022/03/05 00:47:18;;;;;;;17.55;9.77;;;-0.60;71.60;;;-1.93;59.94;97513.69;5011955;28;20715;-74
2022/03/05 00:49:44;;;;;;;17.55;9.82;;;-0.60;71.60;;;-1.92;59.69;97523.91;5013279;28;20413;-75
2022/03/05 00:52:11;;;;;;;16.40;9.18;;;-0.50;71.50;;;-1.95;59.75;97517.28;5011473;28;20469;-74
2022/03/05 00:54:38;;;;;;;16.70;9.75;;;-0.50;71.40;;;-1.94;59.97;97525.88;5011508;28;20436;-74
2022/03/05 00:57:04;;;;;;;16.33;9.35;;;-0.50;71.40;;;-2.10;59.53;97520.75;5011319;28;20471;-74
2022/03/05 00:59:30;;;;;;;15.90;9.63;;;-0.60;71.20;;;-2.16;60.07;97524.81;5011427;28;20401;-74
2022/03/05 01:01:56;;;;;;;17.55;9.18;;;-0.70;71.50;;;-2.11;60.55;97527.75;4993474;28;20446;-75
2022/03/05 01:04:22;;;;;;;15.50;8.65;;;-0.70;71.80;;;-2.28;60.48;97522.75;5011442;28;20416;-74
2022/03/05 01:06:48;;;;;;;15.52;9.13;;;-0.80;71.60;;;-2.31;60.62;97529.06;5011401;28;20424;-75
2022/03/05 01:09:14;;;;;;;15.47;8.80;;;-0.80;71.90;;;-2.35;60.64;97525.22;4993659;28;20488;-75
2022/03/05 01:11:42;;;;;;;15.27;8.70;;;-0.90;72.00;;;-2.35;60.86;97527.81;4993368;28;20770;-75
2022/03/05 01:14:07;;;;;;;16.05;8.73;;;-0.80;72.30;;;-2.33;61.10;97516.28;5011181;28;20405;-75
2022/03/05 01:16:34;;;;;;;17.25;8.38;;;-0.90;72.50;;;-2.41;61.00;97515.53;5011018;28;20495;-76
2022/03/05 01:19:00;;;;;;;19.17;9.23;;;-0.90;72.50;;;-2.37;61.36;97517.59;5011085;28;20420;-75
2022/03/05 01:21:27;;;;;;;15.82;8.43;;;-0.90;72.70;;;-2.46;61.32;97510.00;5010922;28;20393;-75
2022/03/05 01:23:53;;;;;;;17.93;9.57;;;-1.00;72.70;;;-2.50;61.42;97503.53;5010903;28;20751;-74
2022/03/05 01:26:19;;;;;;;16.80;8.95;;;-1.00;73.10;;;-2.42;61.98;97506.94;5010214;28;20467;-74
2022/03/05 01:28:46;;;;;;;17.00;9.18;;;-1.00;73.50;;;-2.60;61.88;97510.69;5010843;28;20895;-75
2022/03/05 01:31:12;;;;;;;15.35;8.77;;;-1.10;73.20;;;-2.43;61.90;97504.50;5010180;28;20400;-75
2022/03/05 01:33:38;;;;;;;15.60;8.30;;;-1.00;73.80;;;-2.67;62.11;97509.72;5010244;28;20408;-76
2022/03/05 01:36:04;;;;;;;13.02;7.63;;;-1.20;73.40;;;-2.71;62.12;97503.28;5000226;28;20417;-76
2022/03/05 01:38:30;;;;;;;22.13;9.60;;;-1.20;73.60;;;-2.62;62.08;97503.06;5010914;28;20428;-75
2022/03/05 01:40:56;;;;;;;15.25;8.93;;;-1.20;74.10;;;-2.76;62.57;97506.34;5010403;28;20417;-75
2022/03/05 01:43:22;;;;;;;16.03;8.23;;;-1.20;73.90;;;-2.86;62.21;97505.72;5010789;28;20409;-75
2022/03/05 01:45:50;;;;;;;14.07;8.20;;;-1.30;73.70;;;-2.72;62.47;97501.66;5010620;28;20409;-75
2022/03/05 01:48:16;;;;;;;15.57;8.97;;;-1.30;74.20;;;-2.86;62.36;97501.34;5010624;28;20480;-75
2022/03/05 01:50:42;;;;;;;15.48;8.98;;;-1.30;74.20;;;-2.74;62.93;97504.41;5010172;28;20542;-75
2022/03/05 01:53:08;;;;;;;15.82;8.85;;;-1.30;74.50;;;-2.80;62.99;97503.28;5010543;28;20486;-75
2022/03/05 01:55:34;;;;;;;17.00;9.38;;;-1.30;74.80;;;-2.80;62.71;97505.06;5010322;28;20413;-75
2022/03/05 01:58:00;;;;;;;12.98;7.85;;;-1.30;75.00;;;-2.96;62.54;97503.28;5010600;28;20424;-75
2022/03/05 02:00:26;;;;;;;17.40;9.07;;;-1.40;74.60;;;-2.95;63.28;97504.09;5010127;28;20539;-75
2022/03/05 02:02:53;;;;;;;14.00;8.02;;;-1.40;75.20;;;-3.04;63.14;97499.91;5010504;28;20405;-74
2022/03/05 02:05:19;;;;;;;18.17;9.65;;;-1.50;74.90;;;-2.94;63.48;97498.78;5010519;28;20482;-75
2022/03/05 02:07:46;;;;;;;13.87;8.23;;;-1.40;75.60;;;-3.11;62.97;97502.34;5010402;28;20397;-75
2022/03/05 02:10:12;;;;;;;16.35;9.18;;;-1.60;75.10;;;-2.88;63.60;97498.13;5009797;28;20484;-74
2022/03/05 02:12:39;;;;;;;18.55;9.40;;;-1.50;76.00;;;-2.93;63.38;97499.59;5010310;28;20411;-75
2022/03/05 02:15:08;;;;;;;14.93;8.95;;;-1.50;75.80;;;-3.08;63.69;97502.00;5010323;28;20404;-74
2022/03/05 02:17:36;;;;;;;16.77;8.82;;;-1.50;75.60;;;-3.01;63.59;97499.59;5010011;28;20445;-75
2022/03/05 02:20:06;;;;;;;15.15;8.02;;;-1.50;75.90;;;-3.11;63.46;97499.75;5010109;28;20416;-76
2022/03/05 02:22:34;;;;;;;20.33;9.32;;;-1.60;75.70;;;-2.99;63.85;97507.97;4992150;28;20446;-75
2022/03/05 02:25:02;;;;;;;19.42;9.75;;;-1.60;76.20;;;-3.19;64.06;97508.31;4992660;28;20794;-75
2022/03/05 02:27:29;;;;;;;16.08;8.70;;;-1.60;76.20;;;-3.19;64.26;97508.31;5010171;28;20401;-75
2022/03/05 02:29:56;;;;;;;15.75;8.90;;;-1.70;76.40;;;-3.22;64.50;97498.28;5009945;28;20492;-75
2022/03/05 02:32:23;;;;;;;17.20;9.02;;;-1.70;76.30;;;-3.14;64.59;97508.63;5009660;28;20466;-75
2022/03/05 02:34:49;;;;;;;16.77;8.98;;;-1.70;76.70;;;-3.20;64.27;97513.66;5009874;28;20774;-75
2022/03/05 02:37:17;;;;;;;16.27;8.23;;;-1.70;76.70;;;-3.30;64.32;97508.63;5009912;28;20452;-75
2022/03/05 02:39:46;;;;;;;15.85;8.98;;;-1.80;76.50;;;-3.25;64.81;97505.56;5009796;28;20928;-75
2022/03/05 02:42:15;;;;;;;17.52;8.80;;;-1.70;77.00;;;-3.20;64.40;97500.72;5009386;28;20409;-74
2022/03/05 02:44:41;;;;;;;15.68;8.80;;;-1.70;77.10;;;-3.32;64.51;97507.19;5008830;28;20435;-75
2022/03/05 02:47:07;;;;;;;17.38;9.27;;;-1.80;76.80;;;-3.33;64.48;97506.38;5009778;28;20390;-75
2022/03/05 02:49:33;;;;;;;16.58;8.52;;;-1.80;77.00;;;-3.38;64.73;97511.19;5009660;28;20401;-75
2022/03/05 02:51:59;;;;;;;16.80;9.73;;;-1.80;76.90;;;-3.36;64.81;97513.63;5009352;28;20890;-75
2022/03/05 02:54:25;;;;;;;17.23;9.05;;;-1.80;77.10;;;-3.31;65.04;97506.22;5009618;28;20412;-75
2022/03/05 02:56:52;;;;;;;18.98;9.82;;;-1.80;77.20;;;-3.30;64.87;97498.28;5009806;28;20423;-74
2022/03/05 02:59:18;;;;;;;15.60;8.73;;;-1.80;77.60;;;-3.51;64.60;97501.34;5009734;28;20408;-74
2022/03/05 03:01:46;;;;;;;17.17;9.57;;;-1.90;77.10;;;-3.42;64.75;97502.16;5009341;28;20401;-75
2022/03/05 03:04:12;;;;;;;17.20;9.35;;;-1.90;77.50;;;-3.37;64.75;97501.66;5009661;28;20439;-74
2022/03/05 03:06:38;;;;;;;18.17;9.80;;;-1.90;77.50;;;-3.42;65.05;97504.75;4992012;28;20925;-74
2022/03/05 03:09:04;;;;;;;13.25;8.60;;;-1.90;77.60;;;-3.43;64.96;97510.06;5009327;28;20412;-74
2022/03/05 03:11:30;;;;;;;14.27;8.05;;;-1.90;77.70;;;-3.53;64.84;97500.69;5009230;28;20412;-76
2022/03/05 03:13:57;;;;;;;15.07;7.88;;;-1.90;77.60;;;-3.61;65.01;97511.00;5009444;28;20809;-76
2022/03/05 03:16:23;;;;;;;16.50;8.65;;;-2.00;77.50;;;-3.61;64.98;97511.00;5009375;28;20405;-76
2022/03/05 03:18:49;;;;;;;16.57;8.43;;;-2.00;77.60;;;-3.58;65.50;97504.72;5009659;28;20492;-75
2022/03/05 03:21:15;;;;;;;13.43;8.02;;;-2.10;77.80;;;-3.68;65.39;97511.81;4991393;28;20496;-75
2022/03/05 03:23:41;;;;;;;16.15;8.85;;;-2.10;77.90;;;-3.64;65.40;97506.16;5009383;28;20488;-74
2022/03/05 03:26:07;;;;;;;16.50;8.77;;;-2.10;78.10;;;-3.76;65.59;97507.41;5009406;28;20466;-75
2022/03/05 03:28:33;;;;;;;16.08;9.20;;;-2.20;78.00;;;-3.58;65.67;97512.47;5009366;28;20397;-75
2022/03/05 03:31:00;;;;;;;16.17;8.65;;;-2.10;78.30;;;-3.71;65.63;97512.94;5008789;28;20462;-75
2022/03/05 03:33:26;;;;;;;16.88;8.48;;;-2.10;78.30;;;-3.72;66.05;97519.09;5009256;28;20404;-75
2022/03/05 03:35:52;;;;;;;14.40;8.68;;;-2.20;78.40;;;-3.81;65.81;97514.03;5009154;28;20440;-75
2022/03/05 03:38:18;;;;;;;14.77;8.53;;;-2.20;78.30;;;-3.84;65.55;97514.38;5009175;28;20458;-74
2022/03/05 03:40:44;;;;;;;14.35;8.27;;;-2.30;78.30;;;-3.90;65.83;97519.19;5008883;28;20974;-74
2022/03/05 03:43:10;;;;;;;12.90;7.72;;;-2.30;78.80;;;-3.93;66.10;97522.09;5009305;28;20401;-74
2022/03/05 03:45:36;;;;;;;18.20;9.45;;;-2.30;78.50;;;-3.71;66.57;97519.91;5009341;28;20409;-74
2022/03/05 03:48:04;;;;;;;17.23;9.47;;;-2.30;79.30;;;-3.78;66.50;97517.13;5009429;28;20428;-74
2022/03/05 03:50:30;;;;;;;17.70;9.65;;;-2.30;79.20;;;-3.79;66.05;97515.50;5008853;28;20400;-74
2022/03/05 03:52:57;;;;;;;15.30;8.77;;;-2.20;79.30;;;-3.92;66.21;97512.56;5009112;28;20419;-74
2022/03/05 03:55:23;;;;;;;18.25;9.63;;;-2.30;79.10;;;-3.86;66.28;97511.94;5009156;28;20413;-75
2022/03/05 03:57:49;;;;;;;16.13;8.25;;;-2.40;79.00;;;-3.96;66.35;97516.44;5012401;28;20431;-74
2022/03/05 04:00:18;;;;;;;14.77;8.37;;;-2.40;79.00;;;-4.00;66.77;97522.88;5012373;28;20401;-75
2022/03/05 04:02:44;;;;;;;16.00;8.07;;;-2.40;79.20;;;-3.99;66.64;97516.75;5012628;28;20451;-75
2022/03/05 04:05:12;;;;;;;16.75;9.02;;;-2.40;79.30;;;-4.04;66.70;97518.97;5012646;28;20401;-75
2022/03/05 04:10:23;;;;;;;16.13;9.17;;;-2.50;79.10;;;-4.05;66.39;97523.34;5012081;28;20415;-74
2022/03/05 04:12:49;;;;;;;17.55;9.52;;;-2.40;79.20;;;-4.00;66.60;97517.72;5012563;28;20949;-75
2022/03/05 04:15:17;;;;;;;17.63;9.27;;;-2.40;79.50;;;-4.05;66.76;97517.34;5012323;28;20405;-75
2022/03/05 04:17:43;;;;;;;18.00;9.38;;;-2.50;79.50;;;-4.13;66.76;97519.91;5012227;28;20909;-75
2022/03/05 04:20:11;;;;;;;17.50;9.25;;;-2.50;79.80;;;-4.16;66.66;97520.22;5011978;28;20491;-74
2022/03/05 04:22:37;;;;;;;18.38;9.43;;;-2.60;79.80;;;-4.15;67.37;97517.50;5012151;28;20404;-74
2022/03/05 04:25:04;;;;;;;17.13;9.95;;;-2.60;80.00;;;-4.04;67.40;97524.16;5012196;28;20467;-75
2022/03/05 04:27:30;;;;;;;17.83;9.40;;;-2.50;80.30;;;-4.06;67.14;97520.94;4994664;28;20889;-74
2022/03/05 04:29:56;;;;;;;15.35;9.65;;;-2.50;80.40;;;-4.03;67.15;97518.03;5012223;28;20413;-74
2022/03/05 04:32:22;;;;;;;16.63;9.25;;;-2.50;80.30;;;-4.14;67.30;97521.72;5011872;28;20496;-74
2022/03/05 04:34:48;;;;;;;20.13;9.10;;;-2.60;81.00;;;-4.22;66.97;97524.25;5012063;28;20404;-74
2022/03/05 04:37:15;;;;;;;16.00;8.90;;;-2.60;80.30;;;-4.24;67.58;97526.19;5012040;28;20413;-74
2022/03/05 04:39:41;;;;;;;18.02;9.88;;;-2.60;80.40;;;-4.18;67.19;97525.56;5011953;28;21085;-74
2022/03/05 04:42:07;;;;;;;18.25;9.60;;;-2.60;80.50;;;-4.21;67.34;97525.84;5013488;28;21130;-75
2022/03/05 04:44:33;;;;;;;23.27;10.32;;;-2.60;80.50;;;-4.10;67.81;97529.94;5013910;28;20409;-73
2022/03/05 04:46:59;;;;;;;18.15;10.18;;;-2.60;80.80;;;-4.26;67.62;97532.47;5008922;22;20437;-71
2022/03/05 04:49:25;;;;;;;17.90;10.00;;;-2.70;80.40;;;-4.28;67.50;97536.00;4992136;28;20748;-72
2022/03/05 04:51:51;;;;;;;15.73;8.93;;;-2.70;80.70;;;-4.35;67.47;97540.16;4973810;28;20418;-72
2022/03/05 04:54:18;;;;;;;19.02;9.07;;;-2.70;80.60;;;-4.35;67.92;97536.78;4991257;28;20578;-72
2022/03/05 04:56:44;;;;;;;16.48;9.25;;;-2.80;80.70;;;-4.38;67.84;97535.31;5008153;28;20409;-71
2022/03/05 04:59:10;;;;;;;18.65;9.70;;;-2.80;80.80;;;-4.41;67.72;97532.22;5001696;28;21008;-72
2022/03/05 05:01:36;;;;;;;17.77;9.63;;;-2.80;81.00;;;-4.32;68.04;97542.44;5010999;28;20421;-72
2022/03/05 05:04:03;;;;;;;20.50;10.82;;;-2.70;81.10;;;-4.32;68.13;97541.66;5011292;28;20806;-72
2022/03/05 05:06:28;;;;;;;20.13;10.48;;;-2.80;81.50;;;-4.26;68.39;97546.19;5011302;28;20414;-72
2022/03/05 05:08:55;;;;;;;21.67;10.10;;;-2.80;81.50;;;-4.42;68.15;97543.50;5010471;28;20400;-71
2022/03/05 05:11:22;;;;;;;19.33;10.40;;;-2.80;81.40;;;-4.40;68.41;97545.00;5010560;28;20417;-71
2022/03/05 05:13:48;;;;;;;22.77;11.40;;;-2.80;81.60;;;-4.33;68.20;97550.34;5011115;28;20405;-72
2022/03/05 05:16:14;;;;;;;21.50;10.57;;;-2.80;81.70;;;-4.41;68.22;97548.53;5011092;28;20928;-71
2022/03/05 05:19:24;;;;;;;18.67;9.80;;;-2.80;81.70;;;-4.44;68.14;97542.88;5011214;28;20419;-71
2022/03/05 05:21:26;;;;;;;18.85;10.10;;;-2.80;81.60;;;-4.42;68.46;97543.50;5010475;28;20409;-71
2022/03/05 05:23:52;;;;;;;16.50;9.30;;;-2.80;82.00;;;-4.51;68.76;97541.88;5011275;28;20974;-72
2022/03/05 05:26:17;;;;;;;18.67;10.02;;;-2.90;81.80;;;-4.50;68.86;97543.47;5011194;28;21072;-72
2022/03/05 05:28:45;;;;;;;21.15;10.07;;;-2.90;82.00;;;-4.53;68.58;97547.19;5010927;28;20944;-72
2022/03/05 05:31:10;;;;;;;20.08;10.43;;;-2.90;82.10;;;-4.49;68.60;97548.50;5010271;28;21091;-72
2022/03/05 05:33:39;;;;;;;18.53;9.73;;;-2.90;82.10;;;-4.53;68.69;97547.19;5010828;28;20444;-72
2022/03/05 05:36:05;;;;;;;18.70;10.70;;;-2.90;81.90;;;-4.39;68.85;97550.97;5010823;28;20423;-72
2022/03/05 05:38:31;;;;;;;22.13;10.60;;;-2.90;82.20;;;-4.48;68.55;97565.63;5010809;28;20416;-72
2022/03/05 05:40:57;;;;;;;19.95;11.07;;;-2.90;82.10;;;-4.38;69.00;97556.00;5010517;28;20416;-72
2022/03/05 05:43:23;;;;;;;24.85;11.65;;;-2.90;82.40;;;-4.39;69.12;97558.72;5011068;28;21009;-71
2022/03/05 05:45:50;;;;;;;23.33;11.53;;;-2.90;82.50;;;-4.39;68.84;97562.13;4993122;28;20802;-72
2022/03/05 05:48:16;;;;;;;24.35;11.50;;;-2.90;82.70;;;-4.44;69.08;97566.94;5010846;28;20412;-72
2022/03/05 05:50:43;;;;;;;23.88;11.77;;;-2.80;82.70;;;-4.38;68.87;97570.69;5010366;28;20408;-71
2022/03/05 05:53:09;;;;;;;23.25;11.68;;;-2.80;82.70;;;-4.49;68.72;97574.31;5010597;28;20396;-72
2022/03/05 05:55:34;;;;;;;23.02;11.85;;;-2.90;82.70;;;-4.43;69.27;97576.28;5010642;28;20404;-72
2022/03/05 05:58:00;;;;;;;23.42;11.35;;;-2.90;83.00;;;-4.46;69.54;97571.44;5010509;28;20424;-72
2022/03/05 06:00:26;;;;;;;20.38;10.57;;;-2.90;83.30;;;-4.58;69.19;97580.38;5010070;28;20409;-71
2022/03/05 06:02:54;;;;;;;22.08;11.20;;;-3.00;82.80;;;-4.55;69.26;97574.94;5010568;28;20408;-71
2022/03/05 06:05:20;;;;;;;28.45;13.10;;;-3.00;82.90;;;-4.46;69.59;97580.97;5010565;28;20408;-71
2022/03/05 06:07:45;;;;;;;24.65;12.43;;;-2.90;83.30;;;-4.51;69.12;97591.72;5010432;28;20739;-71
2022/03/05 06:10:11;;;;;;;19.40;10.48;;;-2.90;83.30;;;-4.58;69.51;97585.56;5009978;28;20420;-71
2022/03/05 06:12:37;;;;;;;23.30;11.10;;;-2.90;83.20;;;-4.58;69.74;97588.13;5010466;28;20413;-72
2022/03/05 06:15:04;;;;;;;20.92;11.20;;;-3.00;83.20;;;-4.56;69.53;97588.81;5010127;28;20417;-72
2022/03/05 06:17:31;;;;;;;24.38;12.40;;;-2.90;83.40;;;-4.43;69.41;97584.03;5010202;28;20428;-72
2022/03/05 06:19:58;;;;;;;21.50;11.80;;;-2.90;83.40;;;-4.51;69.67;97585.78;5010003;28;20405;-72
2022/03/05 06:22:24;;;;;;;24.65;13.50;;;-2.90;83.30;;;-4.36;69.48;97597.19;5009557;28;20470;-72
2022/03/05 06:24:50;;;;;;;22.40;12.40;;;-2.80;83.60;;;-4.47;69.69;97593.06;5010149;28;20400;-70
2022/03/05 06:27:15;;;;;;;24.98;13.82;;;-2.90;83.30;;;-4.30;69.86;97602.56;5010050;28;20433;-71
2022/03/05 06:29:41;;;;;;;21.50;11.75;;;-2.80;83.60;;;-4.44;69.79;97603.13;5010262;28;20483;-72
2022/03/05 06:32:08;;;;;;;25.38;13.45;;;-2.90;83.40;;;-4.26;69.91;97597.06;5009779;28;20405;-71
2022/03/05 06:34:34;;;;;;;28.85;12.85;;;-2.80;83.70;;;-4.28;69.75;97597.22;5008103;28;20508;-72
2022/03/05 06:37:01;;;;;;;20.90;11.90;;;-2.80;83.70;;;-4.38;69.86;97605.09;5009760;28;20531;-72
2022/03/05 06:39:27;;;;;;;20.73;11.85;;;-2.80;83.70;;;-4.36;69.67;97608.31;5009765;28;20408;-71
2022/03/05 06:41:54;;;;;;;19.38;11.60;;;-2.80;83.70;;;-4.31;69.89;97613.03;5009590;28;20397;-72
2022/03/05 06:44:20;;;;;;;22.35;11.57;;;-2.80;83.70;;;-4.34;70.11;97619.31;5009992;28;20825;-71
2022/03/05 06:46:46;;;;;;;27.33;13.30;;;-2.80;83.60;;;-4.16;70.18;97626.19;5009686;28;20438;-71
2022/03/05 06:49:12;;;;;;;21.40;11.60;;;-2.70;84.00;;;-4.24;69.91;97628.72;5009662;28;20492;-71
2022/03/05 06:51:38;;;;;;;20.38;11.43;;;-2.70;83.70;;;-4.15;69.77;97630.41;5009380;28;20412;-71
2022/03/05 06:54:05;;;;;;;27.13;12.07;;;-2.60;83.90;;;-4.03;69.72;97636.94;5009806;28;20408;-71
2022/03/05 06:56:31;;;;;;;27.60;13.23;;;-2.50;84.00;;;-3.90;69.46;97634.72;5009811;28;20443;-72
2022/03/05 06:58:57;;;;;;;25.50;12.27;;;-2.50;83.80;;;-3.85;69.61;97635.09;5009629;28;20681;-71
2022/03/05 07:01:24;;;;;;;23.77;11.85;;;-2.40;83.60;;;-3.77;69.23;97634.31;5009455;28;20504;-72
2022/03/05 07:03:50;;;;;;;24.70;12.77;;;-2.40;83.40;;;-3.81;69.22;97631.22;5009697;28;20496;-71
2022/03/05 07:06:16;;;;;;;21.05;11.20;;;-2.30;83.30;;;-3.80;69.07;97637.22;5009807;28;20484;-72
2022/03/05 07:08:41;;;;;;;21.58;11.93;;;-2.30;83.30;;;-3.70;69.12;97640.50;5009742;28;20471;-70
2022/03/05 07:11:09;;;;;;;19.97;10.80;;;-2.30;83.20;;;-3.66;69.15;97649.56;5009247;28;20413;-71
2022/03/05 07:13:35;;;;;;;21.25;11.48;;;-2.20;83.30;;;-3.49;69.13;97640.91;5009599;28;20403;-71
2022/03/05 07:16:00;;;;;;;23.70;11.55;;;-2.10;83.20;;;-3.39;68.48;97643.38;5008206;28;20499;-72
2022/03/05 07:18:26;;;;;;;18.17;10.17;;;-2.00;83.00;;;-3.32;68.70;97640.00;5009455;28;20913;-72
2022/03/05 07:20:52;;;;;;;19.13;10.45;;;-1.90;82.80;;;-3.23;68.13;97641.63;5009160;28;20400;-71
2022/03/05 07:23:18;;;;;;;24.30;11.48;;;-1.80;82.50;;;-3.07;67.82;97640.03;5008096;28;20659;-70
2022/03/05 07:25:44;;;;;;;19.13;10.10;;;-1.70;82.20;;;-3.00;67.46;97641.00;5012309;28;20416;-72
2022/03/05 07:28:13;;;;;;;24.25;12.45;;;-1.60;81.80;;;-2.88;67.53;97640.56;5009078;28;20856;-71
2022/03/05 07:30:39;;;;;;;21.98;11.85;;;-1.50;81.60;;;-2.81;67.46;97638.94;5008671;28;20408;-71
2022/03/05 07:33:06;;;;;;;22.35;12.20;;;-1.40;81.20;;;-2.70;67.24;97640.41;5013016;28;20393;-72
2022/03/05 07:35:32;;;;;;;28.38;12.10;;;-1.30;81.00;;;-2.59;66.83;97634.91;5010749;28;20889;-72
2022/03/05 07:37:58;;;;;;;22.90;11.45;;;-1.20;80.80;;;-2.51;66.34;97642.69;5010805;28;20459;-72
2022/03/05 07:40:24;;;;;;;19.77;10.23;;;-1.10;80.60;;;-2.43;66.37;97641.88;5012531;28;20432;-72
2022/03/05 07:42:50;;;;;;;17.33;9.70;;;-1.10;80.10;;;-2.35;65.75;97637.50;5013019;28;20976;-71
2022/03/05 07:45:17;;;;;;;15.70;9.63;;;-1.00;79.80;;;-2.27;65.89;97634.09;5012093;28;20495;-73
2022/03/05 07:47:43;;;;;;;17.30;10.00;;;-0.90;79.60;;;-2.18;65.62;97637.47;5012440;28;20890;-72
2022/03/05 07:50:10;;;;;;;18.58;10.80;;;-0.80;79.40;;;-2.12;65.35;97635.03;5012610;28;20455;-74
2022/03/05 07:52:36;;;;;;;17.08;10.18;;;-0.80;79.20;;;-2.02;65.14;97634.81;5011797;28;20454;-73
2022/03/05 07:55:02;;;;;;;22.17;12.07;;;-0.70;79.00;;;-1.92;65.07;97637.25;5007357;28;20906;-72
2022/03/05 07:57:28;;;;;;;22.23;12.90;;;-0.60;78.90;;;-1.82;64.85;97637.88;5010056;28;20428;-75
2022/03/05 07:59:54;;;;;;;20.45;11.77;;;-0.50;78.80;;;-1.73;64.87;97636.88;5011052;28;20444;-75
2022/03/05 08:02:21;;;;;;;18.85;10.95;;;-0.40;78.50;;;-1.62;64.40;97641.69;5009740;28;20414;-72
2022/03/05 08:04:47;;;;;;;20.20;11.45;;;-0.30;78.20;;;-1.54;64.03;97633.06;5011583;28;20471;-73
2022/03/05 08:07:13;;;;;;;22.50;12.00;;;-0.20;77.90;;;-1.45;64.13;97635.47;5012482;28;20508;-72
2022/03/05 08:09:42;;;;;;;25.27;13.73;;;-0.20;77.60;;;-1.36;63.89;97636.25;5012491;28;20474;-73
2022/03/05 08:12:09;;;;;;;27.48;14.75;;;-0.10;77.60;;;-1.26;63.60;97642.00;5011324;28;20412;-72
2022/03/05 08:14:36;;;;;;;25.03;13.47;;;0.00;77.30;;;-1.15;63.57;97640.81;5012487;28;20904;-73
2022/03/05 08:17:02;;;;;;;23.10;13.23;;;0.10;77.10;;;-1.06;63.20;97640.63;5012021;28;20408;-73
2022/03/05 08:19:30;;;;;;;27.10;14.15;;;0.20;76.80;;;-0.97;63.04;97642.16;5012126;28;20919;-72
2022/03/05 08:21:56;;;;;;;26.88;14.60;;;0.30;76.50;;;-0.90;63.03;97637.09;5011093;28;20432;-75
2022/03/05 08:24:22;;;;;;;25.52;14.07;;;0.40;76.80;;;-0.82;62.75;97639.63;5011401;28;20413;-75
2022/03/05 08:26:48;;;;;;;27.97;14.07;;;0.40;76.10;;;-0.74;62.79;97642.19;5011653;28;20401;-75
2022/03/05 08:29:13;;;;;;;25.83;14.30;;;0.50;75.90;;;-0.66;62.48;97641.31;5008928;28;20894;-75
2022/03/05 08:31:39;;;;;;;30.83;15.63;;;0.60;75.70;;;-0.62;62.30;97643.41;5010916;28;20440;-75
2022/03/05 08:34:05;;;;;;;28.27;14.95;;;0.60;75.50;;;-0.53;62.22;97646.75;5005021;28;20508;-78
2022/03/05 08:36:33;;;;;;;27.15;14.45;;;0.70;75.40;;;-0.45;62.09;97649.25;5006964;28;20689;-81
2022/03/05 08:38:59;;;;;;;24.65;14.65;;;0.80;75.20;;;-0.36;61.93;97640.41;5009236;28;20432;-79
2022/03/05 08:41:25;;;;;;;27.98;15.40;;;0.80;74.90;;;-0.28;61.80;97648.16;5010256;28;20431;-76
2022/03/05 08:43:51;;;;;;;29.38;16.25;;;0.90;75.30;;;-0.23;61.21;97642.44;5007913;28;20416;-76
2022/03/05 08:46:17;;;;;;;29.83;15.30;;;1.00;74.10;;;-0.14;61.01;97641.34;5009581;28;20413;-76
2022/03/05 08:48:43;;;;;;;26.93;14.63;;;1.10;74.00;;;-0.08;60.85;97640.66;5011704;28;20478;-89
2022/03/05 08:51:09;;;;;;;27.00;14.63;;;1.20;73.80;;;-0.02;60.57;97634.75;5011391;28;20548;-79
2022/03/05 08:53:36;;;;;;;25.20;14.02;;;1.20;73.60;;;0.05;60.62;97645.25;5009331;28;20915;-76
2022/03/05 08:56:03;;;;;;;24.27;13.80;;;1.20;73.30;;;0.11;60.41;97637.53;5012025;28;20423;-78
2022/03/05 08:58:29;;;;;;;26.23;14.05;;;1.30;73.30;;;0.18;60.00;97633.22;5012349;28;20409;-74
2022/03/05 09:00:59;;;;;;;26.90;14.47;;;1.40;73.10;;;0.25;59.99;97649.75;5011002;28;20443;-77
2022/03/05 09:03:25;;;;;;;25.63;14.00;;;1.40;72.90;;;0.30;60.07;97647.41;5010718;28;20500;-77
2022/03/05 09:05:51;;;;;;;26.75;15.07;;;1.50;72.60;;;0.34;60.01;97642.66;5008590;28;20889;-76
2022/03/05 09:08:18;;;;;;;25.95;13.65;;;1.50;72.30;;;0.37;59.45;97640.53;4994705;28;20420;-76
2022/03/05 09:10:46;;;;;;;23.02;12.95;;;1.60;72.10;;;0.45;59.15;97647.44;5008071;28;20528;-75
2022/03/05 09:13:12;;;;;;;25.77;13.52;;;1.60;71.90;;;0.50;58.99;97642.47;5010919;28;20459;-75
2022/03/05 09:15:38;;;;;;;24.17;14.88;;;1.70;71.80;;;0.56;59.23;97631.31;4993158;28;20420;-74
2022/03/05 09:18:05;;;;;;;29.10;15.48;;;1.70;71.60;;;0.62;59.19;97630.59;5011374;28;20420;-72
2022/03/05 09:20:31;;;;;;;24.55;13.43;;;1.80;71.50;;;0.70;59.08;97630.50;5010788;28;20404;-72
2022/03/05 09:22:58;;;;;;;33.75;16.70;;;1.90;71.50;;;0.79;57.56;97628.59;5011084;28;20416;-71
2022/03/05 09:25:24;;;;;;;25.07;14.70;;;2.00;69.60;;;0.86;57.55;97633.88;5010746;28;20408;-72
2022/03/05 09:27:52;;;;;;;27.17;15.10;;;2.00;69.60;;;0.90;56.96;97622.91;5010940;28;20436;-72
2022/03/05 09:30:19;;;;;;;26.48;14.07;;;2.10;68.60;;;0.96;57.11;97621.38;5010658;28;20433;-71
2022/03/05 09:32:45;;;;;;;25.75;14.90;;;2.10;68.80;;;1.01;56.72;97626.81;5010859;28;20957;-72
2022/03/05 09:35:11;;;;;;;23.17;12.68;;;2.20;68.20;;;1.08;56.93;97625.09;5010792;28;20412;-72
2022/03/05 09:37:37;;;;;;;21.88;12.40;;;2.20;68.50;;;1.12;56.44;97627.16;5010779;28;20427;-72
2022/03/05 09:40:05;;;;;;;20.60;11.77;;;2.30;68.20;;;1.19;56.49;97623.81;5010516;28;20476;-73
2022/03/05 09:42:32;;;;;;;23.17;12.77;;;2.30;68.20;;;1.22;56.04;97618.19;5009876;28;20806;-74
2022/03/05 09:44:59;;;;;;;20.85;10.98;;;2.40;67.50;;;1.29;56.08;97619.88;5006336;28;20899;-77
2022/03/05 09:47:26;;;;;;;25.27;13.85;;;2.40;67.50;;;1.39;54.66;97627.41;5008184;28;20904;-79
2022/03/05 09:49:53;;;;;;;21.33;11.98;;;2.50;65.90;;;1.40;55.03;97619.41;5009897;28;20495;-75
2022/03/05 09:52:20;;;;;;;20.05;11.65;;;2.50;66.10;;;1.45;54.64;97618.81;5011631;28;20497;-75
2022/03/05 09:54:46;;;;;;;21.42;11.65;;;2.60;65.70;;;1.51;53.50;97623.28;5000635;28;20504;-75
2022/03/05 09:57:13;;;;;;;19.83;11.88;;;2.70;64.60;;;1.58;52.61;97616.31;5005433;28;20463;-75
2022/03/05 09:59:40;;;;;;;21.35;11.82;;;2.70;62.90;;;1.70;51.68;97616.63;5003943;28;20427;-75
2022/03/05 10:02:08;;;;;;;19.40;11.90;;;2.90;62.10;;;1.82;49.89;97610.69;5007306;28;20420;-75
2022/03/05 10:04:34;;;;;;;21.98;11.80;;;3.00;59.80;;;2.00;50.23;97609.41;5010474;28;20403;-75
2022/03/05 10:07:09;;;;;;;17.77;10.32;;;3.10;60.00;;;2.54;49.93;97612.94;5010636;28;20798;-75
2022/03/05 10:09:35;;;;;;;18.90;11.20;;;3.50;60.50;;;3.41;49.07;97620.81;5010190;28;20507;-79